sensor_id;sensor_type;location;lat;lon;timestamp;pressure;altitude;pressure_sealevel;temperature
60003;BMP280;46322;52.018;8.702;2023-02-15T00:04:50;101619.28;;;12.18
60003;BMP280;46322;52.018;8.702;2023-02-15T00:09:50;101611.94;;;11.63
60003;BMP280;46322;52.018;8.702;2023-02-15T00:14:50;101615.50;;;12.24
60003;BMP280;46322;52.018;8.702;2023-02-15T00:19:50;101616.41;;;12.47
60003;BMP280;46322;52.018;8.702;2023-02-15T00:24:50;101613.84;;;11.76
60003;BMP280;46322;52.018;8.702;2023-02-15T00:29:51;101603.22;;;11.76
60003;BMP280;46322;52.018;8.702;2023-02-15T00:34:51;101604.34;;;12.22
60003;BMP280;46322;52.018;8.702;2023-02-15T00:39:51;101597.44;;;11.88
60003;BMP280;46322;52.018;8.702;2023-02-15T00:44:52;101602.31;;;12.32
60003;BMP280;46322;52.018;8.702;2023-02-15T00:49:52;101600.81;;;12.13
60003;BMP280;46322;52.018;8.702;2023-02-15T00:54:52;101590.88;;;12.32
60003;BMP280;46322;52.018;8.702;2023-02-15T00:59:52;101594.47;;;11.38
60003;BMP280;46322;52.018;8.702;2023-02-15T01:04:52;101597.38;;;10.75
60003;BMP280;46322;52.018;8.702;2023-02-15T01:09:52;101596.50;;;11.04
60003;BMP280;46322;52.018;8.702;2023-02-15T01:14:52;101589.66;;;11.40
60003;BMP280;46322;52.018;8.702;2023-02-15T01:19:52;101584.22;;;12.16
60003;BMP280;46322;52.018;8.702;2023-02-15T01:24:53;101586.44;;;11.62
60003;BMP280;46322;52.018;8.702;2023-02-15T01:29:53;101580.06;;;11.26
60003;BMP280;46322;52.018;8.702;2023-02-15T01:34:53;101576.47;;;10.45
60003;BMP280;46322;52.018;8.702;2023-02-15T01:39:53;101577.03;;;10.66
60003;BMP280;46322;52.018;8.702;2023-02-15T01:44:57;101568.47;;;10.50
60003;BMP280;46322;52.018;8.702;2023-02-15T01:50:09;101565.59;;;10.46
60003;BMP280;46322;52.018;8.702;2023-02-15T01:55:09;101564.13;;;10.59
60003;BMP280;46322;52.018;8.702;2023-02-15T02:00:10;101558.19;;;11.34
60003;BMP280;46322;52.018;8.702;2023-02-15T02:05:10;101547.75;;;10.28
60003;BMP280;46322;52.018;8.702;2023-02-15T02:10:16;101546.91;;;10.04
60003;BMP280;46322;52.018;8.702;2023-02-15T02:15:16;101546.25;;;10.17
60003;BMP280;46322;52.018;8.702;2023-02-15T02:25:34;101534.38;;;10.86
60003;BMP280;46322;52.018;8.702;2023-02-15T02:30:49;101537.56;;;9.77
60003;BMP280;46322;52.018;8.702;2023-02-15T02:46:22;101525.13;;;10.36
60003;BMP280;46322;52.018;8.702;2023-02-15T02:51:24;101519.38;;;10.29
60003;BMP280;46322;52.018;8.702;2023-02-15T02:56:28;101518.31;;;10.30
60003;BMP280;46322;52.018;8.702;2023-02-15T03:01:31;101510.50;;;9.85
60003;BMP280;46322;52.018;8.702;2023-02-15T03:06:35;101515.88;;;10.33
60003;BMP280;46322;52.018;8.702;2023-02-15T03:11:37;101511.81;;;9.49
60003;BMP280;46322;52.018;8.702;2023-02-15T03:16:38;101497.16;;;9.22
60003;BMP280;46322;52.018;8.702;2023-02-15T03:21:47;101495.84;;;9.59
60003;BMP280;46322;52.018;8.702;2023-02-15T03:26:49;101500.16;;;10.13
60003;BMP280;46322;52.018;8.702;2023-02-15T03:31:50;101501.00;;;9.79
60003;BMP280;46322;52.018;8.702;2023-02-15T03:47:18;101496.94;;;10.21
60003;BMP280;46322;52.018;8.702;2023-02-15T03:52:19;101488.56;;;10.56
60003;BMP280;46322;52.018;8.702;2023-02-15T03:57:25;101489.44;;;10.28
60003;BMP280;46322;52.018;8.702;2023-02-15T04:02:26;101494.50;;;10.72
60003;BMP280;46322;52.018;8.702;2023-02-15T04:07:28;101488.91;;;9.24
60003;BMP280;46322;52.018;8.702;2023-02-15T04:12:28;101489.81;;;10.16
60003;BMP280;46322;52.018;8.702;2023-02-15T04:17:29;101474.41;;;9.21
60003;BMP280;46322;52.018;8.702;2023-02-15T04:22:29;101463.84;;;8.62
60003;BMP280;46322;52.018;8.702;2023-02-15T04:27:29;101470.91;;;9.31
60003;BMP280;46322;52.018;8.702;2023-02-15T04:32:29;101478.91;;;9.21
60003;BMP280;46322;52.018;8.702;2023-02-15T04:37:29;101466.00;;;9.48
60003;BMP280;46322;52.018;8.702;2023-02-15T04:42:30;101462.94;;;9.99
60003;BMP280;46322;52.018;8.702;2023-02-15T04:47:30;101460.59;;;9.29
60003;BMP280;46322;52.018;8.702;2023-02-15T04:52:30;101458.31;;;8.48
60003;BMP280;46322;52.018;8.702;2023-02-15T04:57:30;101458.00;;;8.65
60003;BMP280;46322;52.018;8.702;2023-02-15T05:02:30;101448.72;;;9.61
60003;BMP280;46322;52.018;8.702;2023-02-15T05:07:30;101442.66;;;10.13
60003;BMP280;46322;52.018;8.702;2023-02-15T05:12:31;101424.31;;;8.86
60003;BMP280;46322;52.018;8.702;2023-02-15T05:17:31;101433.47;;;9.43
60003;BMP280;46322;52.018;8.702;2023-02-15T05:22:31;101439.19;;;9.89
60003;BMP280;46322;52.018;8.702;2023-02-15T05:27:31;101434.69;;;9.60
60003;BMP280;46322;52.018;8.702;2023-02-15T05:32:31;101437.16;;;9.47
60003;BMP280;46322;52.018;8.702;2023-02-15T05:37:31;101435.81;;;9.15
60003;BMP280;46322;52.018;8.702;2023-02-15T05:42:32;101439.09;;;9.36
60003;BMP280;46322;52.018;8.702;2023-02-15T05:47:32;101438.69;;;9.19
60003;BMP280;46322;52.018;8.702;2023-02-15T05:52:32;101438.72;;;10.11
60003;BMP280;46322;52.018;8.702;2023-02-15T05:57:32;101444.59;;;10.08
60003;BMP280;46322;52.018;8.702;2023-02-15T06:02:33;101439.34;;;9.74
60003;BMP280;46322;52.018;8.702;2023-02-15T06:07:34;101434.00;;;9.11
60003;BMP280;46322;52.018;8.702;2023-02-15T06:12:34;101432.22;;;9.40
60003;BMP280;46322;52.018;8.702;2023-02-15T06:17:34;101435.16;;;9.33
60003;BMP280;46322;52.018;8.702;2023-02-15T06:22:34;101436.78;;;10.21
60003;BMP280;46322;52.018;8.702;2023-02-15T06:27:34;101424.78;;;9.03
60003;BMP280;46322;52.018;8.702;2023-02-15T06:32:34;101423.47;;;10.03
60003;BMP280;46322;52.018;8.702;2023-02-15T06:37:35;101429.41;;;10.61
60003;BMP280;46322;52.018;8.702;2023-02-15T06:42:35;101424.41;;;9.20
60003;BMP280;46322;52.018;8.702;2023-02-15T06:47:35;101432.19;;;10.70
60003;BMP280;46322;52.018;8.702;2023-02-15T06:52:35;101438.16;;;9.17
60003;BMP280;46322;52.018;8.702;2023-02-15T06:57:35;101426.09;;;9.74
60003;BMP280;46322;52.018;8.702;2023-02-15T07:02:36;101423.91;;;9.81
60003;BMP280;46322;52.018;8.702;2023-02-15T07:07:36;101414.63;;;10.55
60003;BMP280;46322;52.018;8.702;2023-02-15T07:12:36;101421.97;;;9.91
60003;BMP280;46322;52.018;8.702;2023-02-15T07:17:36;101425.97;;;10.13
60003;BMP280;46322;52.018;8.702;2023-02-15T07:22:37;101428.91;;;11.15
60003;BMP280;46322;52.018;8.702;2023-02-15T07:27:37;101418.44;;;9.72
60003;BMP280;46322;52.018;8.702;2023-02-15T07:32:37;101425.06;;;9.99
60003;BMP280;46322;52.018;8.702;2023-02-15T07:37:37;101419.44;;;12.65
60003;BMP280;46322;52.018;8.702;2023-02-15T07:42:37;101417.72;;;11.00
60003;BMP280;46322;52.018;8.702;2023-02-15T07:47:38;101415.00;;;11.37
60003;BMP280;46322;52.018;8.702;2023-02-15T07:52:38;101410.59;;;10.15
60003;BMP280;46322;52.018;8.702;2023-02-15T07:57:41;101406.06;;;10.15
60003;BMP280;46322;52.018;8.702;2023-02-15T08:02:41;101400.16;;;9.42
60003;BMP280;46322;52.018;8.702;2023-02-15T08:07:41;101388.09;;;10.55
60003;BMP280;46322;52.018;8.702;2023-02-15T08:12:41;101384.53;;;10.22
60003;BMP280;46322;52.018;8.702;2023-02-15T08:17:42;101378.88;;;10.90
60003;BMP280;46322;52.018;8.702;2023-02-15T08:22:42;101379.41;;;11.06
60003;BMP280;46322;52.018;8.702;2023-02-15T08:27:42;101378.66;;;10.86
60003;BMP280;46322;52.018;8.702;2023-02-15T08:32:42;101364.03;;;10.70
60003;BMP280;46322;52.018;8.702;2023-02-15T08:37:42;101365.06;;;11.26
60003;BMP280;46322;52.018;8.702;2023-02-15T08:42:42;101360.75;;;10.78
60003;BMP280;46322;52.018;8.702;2023-02-15T08:47:42;101366.53;;;11.32
60003;BMP280;46322;52.018;8.702;2023-02-15T08:52:43;101366.00;;;11.62
60003;BMP280;46322;52.018;8.702;2023-02-15T08:57:43;101356.41;;;11.47
60003;BMP280;46322;52.018;8.702;2023-02-15T09:02:43;101355.53;;;12.79
60003;BMP280;46322;52.018;8.702;2023-02-15T09:07:43;101358.53;;;12.78
60003;BMP280;46322;52.018;8.702;2023-02-15T09:12:43;101364.78;;;15.13
60003;BMP280;46322;52.018;8.702;2023-02-15T09:17:43;101359.56;;;14.35
60003;BMP280;46322;52.018;8.702;2023-02-15T09:22:44;101356.47;;;12.97
60003;BMP280;46322;52.018;8.702;2023-02-15T09:27:44;101362.13;;;13.75
60003;BMP280;46322;52.018;8.702;2023-02-15T09:32:44;101362.19;;;14.09
60003;BMP280;46322;52.018;8.702;2023-02-15T09:37:44;101354.63;;;13.77
60003;BMP280;46322;52.018;8.702;2023-02-15T09:53:07;101345.84;;;14.80
60003;BMP280;46322;52.018;8.702;2023-02-15T10:14:01;101334.44;;;14.10
60003;BMP280;46322;52.018;8.702;2023-02-15T10:24:23;101340.28;;;15.11
60003;BMP280;46322;52.018;8.702;2023-02-15T10:55:18;101326.22;;;16.02
60003;BMP280;46322;52.018;8.702;2023-02-15T11:10:58;101307.06;;;18.51
60003;BMP280;46322;52.018;8.702;2023-02-15T11:21:13;101304.38;;;17.51
60003;BMP280;46322;52.018;8.702;2023-02-15T11:26:28;101310.28;;;16.84
60003;BMP280;46322;52.018;8.702;2023-02-15T11:31:43;101302.81;;;17.26
60003;BMP280;46322;52.018;8.702;2023-02-15T11:36:44;101292.84;;;17.51
60003;BMP280;46322;52.018;8.702;2023-02-15T11:41:47;101296.78;;;17.41
60003;BMP280;46322;52.018;8.702;2023-02-15T11:46:47;101289.97;;;16.25
60003;BMP280;46322;52.018;8.702;2023-02-15T11:51:48;101278.78;;;18.10
60003;BMP280;46322;52.018;8.702;2023-02-15T11:56:48;101289.13;;;17.15
60003;BMP280;46322;52.018;8.702;2023-02-15T12:01:48;101285.13;;;17.61
60003;BMP280;46322;52.018;8.702;2023-02-15T12:07:09;101274.78;;;18.82
60003;BMP280;46322;52.018;8.702;2023-02-15T12:17:33;101268.88;;;20.80
60003;BMP280;46322;52.018;8.702;2023-02-15T12:22:34;101264.34;;;23.05
60003;BMP280;46322;52.018;8.702;2023-02-15T12:27:36;101258.38;;;22.64
60003;BMP280;46322;52.018;8.702;2023-02-15T12:32:50;101250.44;;;21.82
60003;BMP280;46322;52.018;8.702;2023-02-15T12:37:52;101245.66;;;20.98
60003;BMP280;46322;52.018;8.702;2023-02-15T12:42:53;101235.34;;;22.94
60003;BMP280;46322;52.018;8.702;2023-02-15T12:58:19;101215.56;;;25.85
60003;BMP280;46322;52.018;8.702;2023-02-15T13:03:20;101207.41;;;24.75
60003;BMP280;46322;52.018;8.702;2023-02-15T13:08:22;101199.50;;;24.11
60003;BMP280;46322;52.018;8.702;2023-02-15T13:13:47;101201.72;;;25.69
60003;BMP280;46322;52.018;8.702;2023-02-15T13:18:47;101184.88;;;22.37
60003;BMP280;46322;52.018;8.702;2023-02-15T13:23:55;101188.94;;;26.04
60003;BMP280;46322;52.018;8.702;2023-02-15T13:28:57;101188.81;;;25.80
60003;BMP280;46322;52.018;8.702;2023-02-15T13:34:00;101187.53;;;25.95
60003;BMP280;46322;52.018;8.702;2023-02-15T13:39:15;101174.56;;;25.66
60003;BMP280;46322;52.018;8.702;2023-02-15T14:05:28;101151.53;;;25.84
60003;BMP280;46322;52.018;8.702;2023-02-15T14:15:46;101153.41;;;25.91
60003;BMP280;46322;52.018;8.702;2023-02-15T14:26:04;101127.88;;;27.62
60003;BMP280;46322;52.018;8.702;2023-02-15T14:31:08;101120.91;;;26.95
60003;BMP280;46322;52.018;8.702;2023-02-15T14:36:14;101118.00;;;27.29
60003;BMP280;46322;52.018;8.702;2023-02-15T14:41:44;101119.25;;;27.47
60003;BMP280;46322;52.018;8.702;2023-02-15T14:46:52;101123.84;;;27.04
60003;BMP280;46322;52.018;8.702;2023-02-15T14:52:09;101120.84;;;27.65
60003;BMP280;46322;52.018;8.702;2023-02-15T15:02:13;101108.88;;;26.42
60003;BMP280;46322;52.018;8.702;2023-02-15T15:07:19;101106.19;;;27.59
60003;BMP280;46322;52.018;8.702;2023-02-15T15:22:33;101112.28;;;25.51
60003;BMP280;46322;52.018;8.702;2023-02-15T15:27:50;101102.56;;;25.91
60003;BMP280;46322;52.018;8.702;2023-02-15T15:48:35;101092.81;;;23.45
60003;BMP280;46322;52.018;8.702;2023-02-15T15:53:40;101082.13;;;24.39
60003;BMP280;46322;52.018;8.702;2023-02-15T15:58:42;101080.63;;;22.32
60003;BMP280;46322;52.018;8.702;2023-02-15T16:03:51;101078.72;;;22.29
60003;BMP280;46322;52.018;8.702;2023-02-15T16:08:51;101073.97;;;20.69
60003;BMP280;46322;52.018;8.702;2023-02-15T16:13:52;101073.81;;;20.58
60003;BMP280;46322;52.018;8.702;2023-02-15T16:18:54;101076.47;;;21.80
60003;BMP280;46322;52.018;8.702;2023-02-15T16:29:17;101091.66;;;20.10
60003;BMP280;46322;52.018;8.702;2023-02-15T16:34:18;101083.50;;;19.12
60003;BMP280;46322;52.018;8.702;2023-02-15T16:39:19;101078.69;;;19.21
60003;BMP280;46322;52.018;8.702;2023-02-15T16:44:19;101083.66;;;18.80
60003;BMP280;46322;52.018;8.702;2023-02-15T16:49:21;101084.09;;;19.01
60003;BMP280;46322;52.018;8.702;2023-02-15T16:54:22;101082.81;;;17.75
60003;BMP280;46322;52.018;8.702;2023-02-15T16:59:29;101085.47;;;18.22
60003;BMP280;46322;52.018;8.702;2023-02-15T17:04:31;101075.91;;;17.30
60003;BMP280;46322;52.018;8.702;2023-02-15T17:09:32;101069.81;;;17.45
60003;BMP280;46322;52.018;8.702;2023-02-15T17:14:37;101076.09;;;17.21
60003;BMP280;46322;52.018;8.702;2023-02-15T17:19:44;101078.50;;;16.46
60003;BMP280;46322;52.018;8.702;2023-02-15T17:24:47;101080.31;;;17.97
60003;BMP280;46322;52.018;8.702;2023-02-15T17:29:49;101082.63;;;16.96
60003;BMP280;46322;52.018;8.702;2023-02-15T17:34:57;101082.59;;;16.80
60003;BMP280;46322;52.018;8.702;2023-02-15T17:39:58;101079.53;;;17.22
60003;BMP280;46322;52.018;8.702;2023-02-15T17:44:59;101092.97;;;17.10
60003;BMP280;46322;52.018;8.702;2023-02-15T17:50:21;101099.22;;;16.74
60003;BMP280;46322;52.018;8.702;2023-02-15T17:55:23;101097.91;;;16.31
60003;BMP280;46322;52.018;8.702;2023-02-15T18:00:36;101089.09;;;16.18
60003;BMP280;46322;52.018;8.702;2023-02-15T18:05:37;101093.53;;;16.14
60003;BMP280;46322;52.018;8.702;2023-02-15T18:10:38;101091.16;;;15.43
60003;BMP280;46322;52.018;8.702;2023-02-15T18:15:38;101087.88;;;16.16
60003;BMP280;46322;52.018;8.702;2023-02-15T18:20:38;101084.53;;;15.28
60003;BMP280;46322;52.018;8.702;2023-02-15T18:25:38;101085.56;;;15.36
60003;BMP280;46322;52.018;8.702;2023-02-15T18:30:39;101078.22;;;14.62
60003;BMP280;46322;52.018;8.702;2023-02-15T18:35:40;101080.84;;;15.00
60003;BMP280;46322;52.018;8.702;2023-02-15T18:40:40;101074.84;;;14.15
60003;BMP280;46322;52.018;8.702;2023-02-15T18:45:40;101065.63;;;14.03
60003;BMP280;46322;52.018;8.702;2023-02-15T18:50:40;101067.78;;;13.63
60003;BMP280;46322;52.018;8.702;2023-02-15T18:55:41;101077.13;;;13.87
60003;BMP280;46322;52.018;8.702;2023-02-15T19:00:41;101079.31;;;14.70
60003;BMP280;46322;52.018;8.702;2023-02-15T19:05:44;101080.28;;;14.65
60003;BMP280;46322;52.018;8.702;2023-02-15T19:10:45;101075.41;;;14.67
60003;BMP280;46322;52.018;8.702;2023-02-15T19:15:45;101078.38;;;13.89
60003;BMP280;46322;52.018;8.702;2023-02-15T19:20:51;101077.47;;;13.68
60003;BMP280;46322;52.018;8.702;2023-02-15T19:25:52;101070.59;;;13.32
60003;BMP280;46322;52.018;8.702;2023-02-15T19:30:52;101066.19;;;13.02
60003;BMP280;46322;52.018;8.702;2023-02-15T19:35:53;101069.34;;;13.38
60003;BMP280;46322;52.018;8.702;2023-02-15T19:41:00;101073.41;;;13.01
60003;BMP280;46322;52.018;8.702;2023-02-15T19:46:01;101076.41;;;14.83
60003;BMP280;46322;52.018;8.702;2023-02-15T19:51:01;101074.50;;;13.61
60003;BMP280;46322;52.018;8.702;2023-02-15T19:56:17;101084.53;;;13.12
60003;BMP280;46322;52.018;8.702;2023-02-15T20:01:17;101081.56;;;13.14
60003;BMP280;46322;52.018;8.702;2023-02-15T20:06:33;101096.47;;;12.27
60003;BMP280;46322;52.018;8.702;2023-02-15T20:11:33;101094.78;;;12.70
60003;BMP280;46322;52.018;8.702;2023-02-15T20:16:33;101100.63;;;12.90
60003;BMP280;46322;52.018;8.702;2023-02-15T20:21:34;101111.91;;;13.04
60003;BMP280;46322;52.018;8.702;2023-02-15T20:26:34;101112.25;;;13.11
60003;BMP280;46322;52.018;8.702;2023-02-15T20:31:34;101119.81;;;13.61
60003;BMP280;46322;52.018;8.702;2023-02-15T20:36:35;101126.91;;;14.21
60003;BMP280;46322;52.018;8.702;2023-02-15T20:41:36;101117.34;;;12.51
60003;BMP280;46322;52.018;8.702;2023-02-15T20:46:36;101114.00;;;11.83
60003;BMP280;46322;52.018;8.702;2023-02-15T20:51:36;101114.06;;;11.92
60003;BMP280;46322;52.018;8.702;2023-02-15T20:56:36;101106.19;;;12.09
60003;BMP280;46322;52.018;8.702;2023-02-15T21:01:37;101101.66;;;12.09
60003;BMP280;46322;52.018;8.702;2023-02-15T21:06:37;101099.13;;;12.04
60003;BMP280;46322;52.018;8.702;2023-02-15T21:11:37;101087.84;;;10.91
60003;BMP280;46322;52.018;8.702;2023-02-15T21:16:37;101096.34;;;11.87
60003;BMP280;46322;52.018;8.702;2023-02-15T21:21:38;101100.00;;;13.96
60003;BMP280;46322;52.018;8.702;2023-02-15T21:26:41;101115.34;;;14.17
60003;BMP280;46322;52.018;8.702;2023-02-15T21:31:43;101107.75;;;12.32
60003;BMP280;46322;52.018;8.702;2023-02-15T21:36:45;101108.44;;;12.47
60003;BMP280;46322;52.018;8.702;2023-02-15T21:41:47;101106.03;;;13.50
60003;BMP280;46322;52.018;8.702;2023-02-15T21:46:47;101107.63;;;12.86
60003;BMP280;46322;52.018;8.702;2023-02-15T21:51:48;101116.19;;;11.45
60003;BMP280;46322;52.018;8.702;2023-02-15T21:56:48;101118.25;;;10.66
60003;BMP280;46322;52.018;8.702;2023-02-15T22:01:49;101118.41;;;11.15
60003;BMP280;46322;52.018;8.702;2023-02-15T22:06:50;101124.78;;;11.78
60003;BMP280;46322;52.018;8.702;2023-02-15T22:11:51;101118.09;;;10.76
60003;BMP280;46322;52.018;8.702;2023-02-15T22:16:52;101114.84;;;10.19
60003;BMP280;46322;52.018;8.702;2023-02-15T22:21:52;101120.25;;;11.87
60003;BMP280;46322;52.018;8.702;2023-02-15T22:26:52;101113.84;;;13.47
60003;BMP280;46322;52.018;8.702;2023-02-15T22:31:52;101124.66;;;10.65
60003;BMP280;46322;52.018;8.702;2023-02-15T22:36:53;101119.44;;;10.46
60003;BMP280;46322;52.018;8.702;2023-02-15T22:41:54;101118.19;;;10.98
60003;BMP280;46322;52.018;8.702;2023-02-15T22:46:54;101117.38;;;11.11
60003;BMP280;46322;52.018;8.702;2023-02-15T22:51:55;101116.19;;;9.22
60003;BMP280;46322;52.018;8.702;2023-02-15T22:56:56;101115.50;;;9.54
60003;BMP280;46322;52.018;8.702;2023-02-15T23:01:57;101113.09;;;8.91
60003;BMP280;46322;52.018;8.702;2023-02-15T23:06:59;101107.38;;;9.51
60003;BMP280;46322;52.018;8.702;2023-02-15T23:11:59;101121.31;;;11.41
60003;BMP280;46322;52.018;8.702;2023-02-15T23:16:59;101120.06;;;13.16
60003;BMP280;46322;52.018;8.702;2023-02-15T23:22:00;101113.50;;;13.83
60003;BMP280;46322;52.018;8.702;2023-02-15T23:27:01;101113.75;;;12.47
60003;BMP280;46322;52.018;8.702;2023-02-15T23:32:01;101117.56;;;13.02
60003;BMP280;46322;52.018;8.702;2023-02-15T23:37:01;101114.16;;;12.62
60003;BMP280;46322;52.018;8.702;2023-02-15T23:42:04;101112.97;;;11.34
60003;BMP280;46322;52.018;8.702;2023-02-15T23:47:08;101111.19;;;8.68
60003;BMP280;46322;52.018;8.702;2023-02-15T23:52:16;101100.75;;;8.82
60003;BMP280;46322;52.018;8.702;2023-02-15T23:57:16;101097.91;;;9.02
